createdAt,value
2017-09-02T00:01:44.124Z,65.70
2017-09-02T00:04:12.420Z,65.30
2017-09-02T00:06:40.773Z,65.10
2017-09-02T00:09:09.078Z,65.20
2017-09-02T00:11:37.438Z,65.20
2017-09-02T00:14:05.741Z,65.20
2017-09-02T00:16:34.998Z,65.00
2017-09-02T00:19:03.329Z,65.80
2017-09-02T00:21:31.633Z,66.00
2017-09-02T00:23:59.965Z,65.90
2017-09-02T00:26:28.307Z,66.00
2017-09-02T00:28:56.916Z,66.10
2017-09-02T00:31:25.221Z,66.30
2017-09-02T00:33:53.875Z,66.70
2017-09-02T00:36:22.177Z,66.40
2017-09-02T00:38:50.492Z,66.40
2017-09-02T00:41:18.889Z,66.60
2017-09-02T00:43:47.197Z,66.70
2017-09-02T00:46:15.490Z,66.80
2017-09-02T00:48:43.833Z,67.00
2017-09-02T00:51:12.169Z,67.00
2017-09-02T00:53:40.481Z,66.70
2017-09-02T00:56:08.823Z,66.60
2017-09-02T00:58:37.166Z,66.20
2017-09-02T01:01:05.467Z,65.90
2017-09-02T01:03:33.849Z,66.30
2017-09-02T01:09:05.967Z,65.50
2017-09-02T01:11:35.138Z,65.50
2017-09-02T01:14:03.475Z,65.30
2017-09-02T01:19:32.111Z,65.70
2017-09-02T01:25:00.695Z,65.90
2017-09-02T01:27:29.005Z,67.30
2017-09-02T01:29:57.386Z,66.90
2017-09-02T01:32:25.705Z,67.90
2017-09-02T01:34:54.008Z,67.80
2017-09-02T01:37:22.343Z,68.00
2017-09-02T01:39:50.683Z,68.10
2017-09-02T01:42:18.991Z,69.50
2017-09-02T01:44:47.293Z,70.60
2017-09-02T01:47:15.621Z,71.00
2017-09-02T01:49:43.977Z,70.50
2017-09-02T01:52:12.303Z,71.30
2017-09-02T01:54:40.701Z,71.00
2017-09-02T01:57:09.045Z,71.60
2017-09-02T01:59:37.351Z,72.50
2017-09-02T02:02:05.651Z,71.80
2017-09-02T02:04:34.086Z,71.70
2017-09-02T02:07:03.386Z,71.90
2017-09-02T02:09:33.458Z,73.10
2017-09-02T02:12:01.930Z,73.40
2017-09-02T02:14:59.862Z,74.20
2017-09-02T02:17:31.993Z,83.60
2017-09-02T02:26:04.151Z,90.20
2017-09-02T02:28:33.475Z,94.20
2017-09-02T02:31:02.301Z,89.50
2017-09-02T02:33:30.726Z,93.50
2017-09-02T02:35:59.014Z,93.50
2017-09-02T02:38:27.571Z,90.30
2017-09-02T02:40:55.929Z,93.20
2017-09-02T02:43:24.225Z,95.70
2017-09-02T02:45:52.559Z,98.40
2017-09-02T02:48:20.856Z,99.90
2017-09-02T02:50:49.187Z,99.90
2017-09-02T02:53:17.491Z,99.90
2017-09-02T02:55:45.823Z,99.90
2017-09-02T02:58:17.532Z,99.90
2017-09-02T03:00:45.867Z,99.90
2017-09-02T03:03:14.172Z,99.90
2017-09-02T03:05:42.514Z,99.90
2017-09-02T03:08:10.863Z,99.90
2017-09-02T03:10:39.173Z,99.90
2017-09-02T03:13:07.569Z,99.90
2017-09-02T03:15:35.881Z,99.90
2017-09-02T03:18:06.253Z,99.90
2017-09-02T03:20:35.373Z,99.90
2017-09-02T03:23:06.579Z,99.90
2017-09-02T03:25:35.305Z,99.90
2017-09-02T03:28:04.631Z,97.30
2017-09-02T03:30:33.082Z,96.20
2017-09-02T03:33:01.426Z,96.90
2017-09-02T03:35:30.369Z,99.90
2017-09-02T03:37:58.714Z,98.00
2017-09-02T03:40:27.975Z,94.30
2017-09-02T03:42:56.305Z,93.70
2017-09-02T03:45:25.704Z,97.10
2017-09-02T03:47:54.038Z,94.60
2017-09-02T03:50:22.345Z,96.10
2017-09-02T03:56:00.613Z,96.50
2017-09-02T03:58:29.968Z,96.00
2017-09-02T04:00:58.274Z,93.50
2017-09-02T04:03:26.614Z,93.00
2017-09-02T04:05:55.330Z,93.70
2017-09-02T04:08:23.663Z,92.60
2017-09-02T04:10:52.036Z,92.90
2017-09-02T04:13:20.380Z,92.30
2017-09-02T04:15:48.688Z,93.70
2017-09-02T04:18:17.025Z,91.40
2017-09-02T04:20:45.326Z,93.10
2017-09-02T04:23:13.662Z,93.90
2017-09-02T04:25:42.071Z,93.30
2017-09-02T04:28:10.365Z,94.20
2017-09-02T04:30:38.706Z,95.10
2017-09-02T04:33:07.028Z,91.70
2017-09-02T04:35:35.704Z,92.00
2017-09-02T04:38:04.054Z,91.30
2017-09-02T04:40:32.406Z,91.50
2017-09-02T04:43:00.737Z,91.50
2017-09-02T04:45:29.350Z,90.30
2017-09-02T04:47:57.696Z,90.50
2017-09-02T04:50:26.008Z,88.30
2017-09-02T04:52:54.366Z,88.70
2017-09-02T04:55:22.671Z,87.70
2017-09-02T04:57:51.000Z,93.10
2017-09-02T05:00:19.415Z,93.70
2017-09-02T05:02:47.727Z,96.90
2017-09-02T05:05:16.020Z,97.90
2017-09-02T05:07:44.346Z,91.80
2017-09-02T05:10:13.354Z,91.10
2017-09-02T05:12:42.533Z,90.90
2017-09-02T05:15:11.561Z,91.90
2017-09-02T05:17:39.872Z,91.10
2017-09-02T05:20:08.219Z,90.00
2017-09-02T05:22:36.537Z,90.80
2017-09-02T05:25:04.869Z,96.20
2017-09-02T05:27:33.177Z,93.40
2017-09-02T05:30:01.514Z,96.40
2017-09-02T05:32:29.809Z,97.50
2017-09-02T05:34:58.144Z,95.50
2017-09-02T05:37:26.491Z,92.50
2017-09-02T05:39:54.794Z,92.30
2017-09-02T05:42:23.126Z,92.40
2017-09-02T05:44:51.453Z,92.30
2017-09-02T05:47:19.773Z,93.50
2017-09-02T05:50:07.920Z,92.00
2017-09-02T05:52:39.379Z,90.10
2017-09-02T05:55:07.702Z,90.20
2017-09-02T05:57:36.881Z,91.20
2017-09-02T06:00:05.214Z,91.90
2017-09-02T06:02:33.535Z,91.70
2017-09-02T06:05:01.882Z,91.70
2017-09-02T06:07:30.203Z,91.70
2017-09-02T06:09:58.507Z,90.50
2017-09-02T06:12:26.849Z,89.90
2017-09-02T06:14:55.145Z,91.30
2017-09-02T06:17:23.500Z,88.60
2017-09-02T06:19:51.799Z,89.00
2017-09-02T06:22:20.102Z,88.30
2017-09-02T06:24:48.441Z,88.10
2017-09-02T06:27:16.771Z,88.10
2017-09-02T06:29:45.118Z,87.40
2017-09-02T06:32:13.414Z,87.20
2017-09-02T06:34:41.820Z,87.10
2017-09-02T06:37:10.217Z,87.50
2017-09-02T06:39:38.546Z,86.30
2017-09-02T06:42:06.883Z,86.20
2017-09-02T06:44:35.186Z,86.60
2017-09-02T06:47:03.532Z,88.30
2017-09-02T06:49:31.852Z,86.50
2017-09-02T06:52:00.148Z,85.70
2017-09-02T06:54:28.494Z,86.00
2017-09-02T06:56:56.791Z,84.20
2017-09-02T06:59:25.098Z,83.30
2017-09-02T07:01:53.444Z,83.70
2017-09-02T07:04:21.741Z,84.40
2017-09-02T07:06:50.075Z,82.40
2017-09-02T07:09:18.382Z,82.40
2017-09-02T07:11:46.719Z,82.50
2017-09-02T07:14:15.050Z,81.20
2017-09-02T07:16:43.378Z,81.10
2017-09-02T07:19:11.698Z,79.20
2017-09-02T07:21:41.127Z,79.20
2017-09-02T07:24:09.473Z,79.70
2017-09-02T07:26:37.802Z,77.90
2017-09-02T07:29:06.173Z,78.60
2017-09-02T07:31:34.472Z,78.90
2017-09-02T07:34:02.782Z,79.90
2017-09-02T07:36:31.114Z,78.60
2017-09-02T07:38:59.410Z,79.00
2017-09-02T07:41:27.708Z,80.70
2017-09-02T07:43:56.042Z,78.60
2017-09-02T07:46:24.342Z,79.60
2017-09-02T07:48:52.722Z,78.70
2017-09-02T07:51:21.038Z,75.60
2017-09-02T07:53:49.374Z,74.40
2017-09-02T07:56:17.684Z,73.40
2017-09-02T07:58:46.804Z,67.50
2017-09-02T08:01:15.098Z,68.10
2017-09-02T08:03:43.465Z,61.90
2017-09-02T08:06:11.867Z,58.30
2017-09-02T08:08:40.294Z,55.30
2017-09-02T08:11:08.690Z,53.30
2017-09-02T08:13:37.042Z,51.20
2017-09-02T08:16:05.347Z,47.70
2017-09-02T08:18:33.651Z,49.80
2017-09-02T08:21:02.007Z,49.40
2017-09-02T08:23:30.318Z,52.70
2017-09-02T08:25:58.624Z,51.90
2017-09-02T08:28:26.966Z,55.10
2017-09-02T08:30:55.282Z,57.40
2017-09-02T08:33:23.623Z,58.70
2017-09-02T08:35:51.942Z,57.90
2017-09-02T08:38:20.247Z,58.60
2017-09-02T08:40:48.575Z,60.00
2017-09-02T08:43:16.932Z,60.50
2017-09-02T08:45:45.240Z,63.20
2017-09-02T08:48:13.541Z,65.20
2017-09-02T08:50:41.881Z,62.10
2017-09-02T08:53:10.194Z,67.00
2017-09-02T08:55:38.494Z,67.60
2017-09-02T08:58:06.825Z,64.80
2017-09-02T09:00:35.156Z,68.10
2017-09-02T09:03:03.725Z,70.20
2017-09-02T09:05:33.254Z,68.70
2017-09-02T09:08:02.359Z,70.30
2017-09-02T09:10:30.715Z,72.10
2017-09-02T09:12:59.206Z,71.50
2017-09-02T09:15:27.580Z,69.50
2017-09-02T09:17:56.492Z,70.10
2017-09-02T09:20:24.794Z,71.30
2017-09-02T09:22:53.094Z,70.10
2017-09-02T09:25:21.467Z,70.80
2017-09-02T09:27:49.823Z,72.90
2017-09-02T09:30:18.144Z,73.10
2017-09-02T09:32:46.479Z,71.20
2017-09-02T09:35:15.139Z,72.40
2017-09-02T09:37:43.593Z,72.00
2017-09-02T09:40:13.206Z,71.50
2017-09-02T09:42:41.506Z,70.80
2017-09-02T09:45:09.863Z,72.00
2017-09-02T09:47:38.176Z,72.40
2017-09-02T09:50:06.475Z,71.80
2017-09-02T09:52:34.844Z,70.80
2017-09-02T09:55:03.141Z,70.60
2017-09-02T09:57:31.478Z,65.00
2017-09-02T09:59:59.782Z,61.90
2017-09-02T10:02:28.126Z,55.80
2017-09-02T10:04:56.493Z,54.30
2017-09-02T10:07:24.823Z,53.30
2017-09-02T10:09:53.129Z,50.60
2017-09-02T10:12:21.463Z,48.60
2017-09-02T10:14:49.767Z,47.10
2017-09-02T10:17:18.111Z,46.60
2017-09-02T10:19:46.411Z,42.80
2017-09-02T10:22:14.818Z,44.10
2017-09-02T10:24:43.346Z,45.80
2017-09-02T10:27:11.646Z,44.70
2017-09-02T10:29:39.977Z,42.70
2017-09-02T10:32:08.303Z,44.80
2017-09-02T10:34:36.632Z,46.10
2017-09-02T10:37:04.976Z,48.60
2017-09-02T10:39:33.327Z,48.80
2017-09-02T10:42:01.625Z,48.00
2017-09-02T10:44:29.972Z,48.20
2017-09-02T10:46:58.344Z,48.80
2017-09-02T10:49:26.663Z,49.10
2017-09-02T10:51:55.010Z,48.50
2017-09-02T10:54:23.346Z,48.20
2017-09-02T10:56:51.662Z,50.40
2017-09-02T10:59:20.003Z,50.40
2017-09-02T11:01:48.303Z,52.00
2017-09-02T11:04:16.609Z,52.40
2017-09-02T11:06:44.932Z,54.10
2017-09-02T11:09:13.759Z,55.40
2017-09-02T11:11:42.089Z,56.20
2017-09-02T11:14:10.398Z,54.60
2017-09-02T11:16:38.708Z,54.20
2017-09-02T11:19:07.044Z,55.00
2017-09-02T11:21:35.353Z,55.80
2017-09-02T11:24:03.904Z,56.80
2017-09-02T11:26:32.237Z,52.20
2017-09-02T11:29:00.570Z,52.50
2017-09-02T11:31:28.971Z,53.40
2017-09-02T11:33:57.290Z,53.90
2017-09-02T11:36:25.592Z,51.60
2017-09-02T11:38:53.944Z,51.30
2017-09-02T11:41:22.254Z,49.80
2017-09-02T11:43:50.561Z,49.80
2017-09-02T11:46:18.894Z,47.20
2017-09-02T11:48:47.254Z,44.10
2017-09-02T11:51:15.582Z,42.50
2017-09-02T11:53:44.831Z,41.20
2017-09-02T11:56:13.554Z,40.10
2017-09-02T11:58:41.870Z,40.40
2017-09-02T12:01:10.182Z,39.30
2017-09-02T12:03:38.527Z,40.50
2017-09-02T12:06:13.048Z,39.00
2017-09-02T12:11:41.420Z,38.60
2017-09-02T12:14:09.828Z,37.10
2017-09-02T12:16:38.148Z,37.50
2017-09-02T12:19:06.458Z,38.70
2017-09-02T12:21:34.801Z,37.10
2017-09-02T12:24:03.107Z,38.30
2017-09-02T12:26:31.405Z,37.90
2017-09-02T12:28:59.894Z,38.30
2017-09-02T12:31:28.409Z,40.10
2017-09-02T12:33:56.733Z,40.80
2017-09-02T12:36:25.052Z,41.80
2017-09-02T12:38:53.448Z,41.70
2017-09-02T12:41:21.778Z,41.80
2017-09-02T12:43:51.357Z,43.80
2017-09-02T12:46:19.702Z,42.30
2017-09-02T12:48:48.022Z,43.30
2017-09-02T12:51:16.354Z,43.90
2017-09-02T12:53:44.683Z,42.50
2017-09-02T12:56:13.256Z,43.20
2017-09-02T12:58:41.664Z,43.80
2017-09-02T13:01:09.973Z,43.80
2017-09-02T13:03:38.291Z,45.00
2017-09-02T13:06:06.627Z,44.90
2017-09-02T13:08:34.934Z,45.50
2017-09-02T13:11:03.277Z,45.10
2017-09-02T13:13:31.620Z,45.00
2017-09-02T13:16:00.013Z,45.30
2017-09-02T13:18:28.355Z,40.30
2017-09-02T13:20:56.692Z,38.00
2017-09-02T13:23:25.229Z,38.50
2017-09-02T13:25:53.531Z,39.10
2017-09-02T13:28:21.900Z,40.30
2017-09-02T13:30:50.211Z,42.20
2017-09-02T13:33:18.506Z,43.00
2017-09-02T13:35:46.835Z,41.50
2017-09-02T13:38:15.162Z,40.80
2017-09-02T13:40:43.517Z,42.50
2017-09-02T13:43:11.850Z,43.40
2017-09-02T13:45:40.146Z,42.20
2017-09-02T13:48:08.476Z,40.50
2017-09-02T13:50:36.820Z,41.10
2017-09-02T13:53:05.123Z,39.00
2017-09-02T13:55:33.472Z,39.70
2017-09-02T13:58:01.809Z,40.90
2017-09-02T14:00:30.107Z,41.70
2017-09-02T14:02:58.444Z,41.70
2017-09-02T14:05:26.811Z,45.00
2017-09-02T14:07:55.129Z,47.40
2017-09-02T14:10:23.433Z,47.50
2017-09-02T14:12:53.689Z,49.80
2017-09-02T14:15:22.487Z,52.10
2017-09-02T14:17:51.937Z,54.00
2017-09-02T14:20:20.240Z,58.20
2017-09-02T14:22:48.546Z,61.60
2017-09-02T14:25:17.120Z,64.10
2017-09-02T14:27:45.519Z,66.00
2017-09-02T14:30:13.865Z,67.50
2017-09-02T14:32:42.538Z,68.50
2017-09-02T14:35:10.869Z,68.60
2017-09-02T14:37:39.254Z,68.80
2017-09-02T14:40:07.569Z,68.40
2017-09-02T14:42:35.934Z,67.90
2017-09-02T14:45:04.417Z,67.00
2017-09-02T14:47:32.770Z,68.90
2017-09-02T14:50:01.380Z,68.40
2017-09-02T14:52:29.713Z,67.60
2017-09-02T14:54:58.197Z,67.90
2017-09-02T14:57:26.512Z,67.40
2017-09-02T14:59:54.826Z,65.90
2017-09-02T15:02:23.263Z,65.00
2017-09-02T15:04:51.641Z,65.50
2017-09-02T15:07:20.225Z,63.50
2017-09-02T15:09:48.577Z,63.50
2017-09-02T15:12:16.874Z,63.20
2017-09-02T15:14:45.235Z,63.30
2017-09-02T15:17:13.959Z,62.40
2017-09-02T15:19:42.265Z,61.20
2017-09-02T15:22:10.606Z,60.30
2017-09-02T15:24:39.018Z,62.20
2017-09-02T15:27:07.345Z,60.90
2017-09-02T15:29:35.673Z,60.80
2017-09-02T15:32:04.005Z,61.80
2017-09-02T15:34:32.350Z,62.30
2017-09-02T15:37:00.659Z,62.90
2017-09-02T15:39:28.986Z,63.20
2017-09-02T15:41:57.320Z,63.80
2017-09-02T15:44:25.662Z,63.00
2017-09-02T15:46:53.994Z,61.60
2017-09-02T15:49:22.356Z,61.90
2017-09-02T15:51:50.756Z,62.60
2017-09-02T15:54:19.060Z,63.10
2017-09-02T15:56:47.414Z,62.70
2017-09-02T15:59:15.781Z,61.60
2017-09-02T16:01:44.187Z,61.50
2017-09-02T16:04:12.485Z,59.90
2017-09-02T16:06:40.809Z,60.10
2017-09-02T16:09:09.113Z,61.00
2017-09-02T16:11:37.536Z,60.20
2017-09-02T16:14:05.843Z,59.70
2017-09-02T16:16:34.149Z,59.90
2017-09-02T16:19:03.400Z,60.40
2017-09-02T16:21:32.037Z,60.60
2017-09-02T16:24:00.371Z,61.10
2017-09-02T16:26:28.814Z,59.60
2017-09-02T16:28:57.186Z,59.30
2017-09-02T16:31:25.482Z,60.10
2017-09-02T16:33:53.812Z,60.20
2017-09-02T16:36:22.164Z,60.40
2017-09-02T16:38:50.496Z,60.60
2017-09-02T16:41:18.837Z,61.60
2017-09-02T16:43:47.280Z,63.30
2017-09-02T16:46:15.632Z,61.50
2017-09-02T16:48:43.975Z,63.10
2017-09-02T16:51:12.372Z,64.00
2017-09-02T16:53:40.696Z,64.20
2017-09-02T16:56:09.035Z,65.00
2017-09-02T16:58:37.380Z,65.10
2017-09-02T17:01:05.698Z,65.20
2017-09-02T17:03:33.998Z,65.70
2017-09-02T17:06:02.486Z,65.60
2017-09-02T17:08:30.788Z,65.50
2017-09-02T17:10:59.845Z,65.90
2017-09-02T17:13:28.181Z,66.10
2017-09-02T17:15:56.497Z,66.70
2017-09-02T17:18:24.850Z,67.00
2017-09-02T17:20:53.227Z,67.50
2017-09-02T17:23:34.727Z,67.70
2017-09-02T17:26:03.793Z,68.60
2017-09-02T17:28:32.126Z,68.60
2017-09-02T17:31:00.430Z,68.50
2017-09-02T17:33:28.758Z,68.50
2017-09-02T17:35:57.086Z,68.60
2017-09-02T17:38:25.390Z,69.00
2017-09-02T17:40:53.718Z,69.20
2017-09-02T17:43:22.047Z,69.90
2017-09-02T17:45:50.578Z,70.70
2017-09-02T17:48:18.888Z,71.40
2017-09-02T17:50:47.548Z,71.50
2017-09-02T17:53:15.890Z,71.70
2017-09-02T17:55:44.229Z,71.70
2017-09-02T17:58:12.532Z,70.90
2017-09-02T18:00:40.891Z,68.80
2017-09-02T18:03:09.210Z,68.70
2017-09-02T18:05:37.510Z,69.20
2017-09-02T18:08:05.830Z,69.40
2017-09-02T18:10:34.328Z,67.40
2017-09-02T18:13:03.058Z,68.10
2017-09-02T18:15:31.422Z,68.10
2017-09-02T18:17:59.741Z,68.00
2017-09-02T18:20:28.072Z,67.90
2017-09-02T18:22:57.242Z,68.60
2017-09-02T18:25:25.559Z,68.30
2017-09-02T18:27:54.009Z,68.20
2017-09-02T18:30:22.324Z,68.90
2017-09-02T18:32:50.644Z,69.20
2017-09-02T18:35:18.947Z,69.40
2017-09-02T18:37:48.060Z,68.20
2017-09-02T18:40:16.386Z,68.90
2017-09-02T18:42:44.704Z,69.40
2017-09-02T18:45:13.006Z,69.60
2017-09-02T18:47:41.327Z,70.30
2017-09-02T18:50:09.638Z,71.00
2017-09-02T18:52:37.937Z,71.70
2017-09-02T18:55:06.281Z,72.50
2017-09-02T18:57:34.578Z,73.50
2017-09-02T19:00:02.883Z,74.20
2017-09-02T19:02:31.224Z,74.50
2017-09-02T19:04:59.514Z,75.40
2017-09-02T19:07:27.823Z,75.30
2017-09-02T19:09:56.141Z,75.40
2017-09-02T19:12:24.456Z,75.20
2017-09-02T19:14:52.873Z,75.10
2017-09-02T19:17:21.170Z,75.00
2017-09-02T19:19:49.479Z,76.10
2017-09-02T19:22:17.801Z,75.80
2017-09-02T19:24:46.138Z,75.90
2017-09-02T19:27:14.554Z,75.80
2017-09-02T19:29:42.963Z,75.80
2017-09-02T19:32:11.296Z,75.90
2017-09-02T19:34:39.597Z,75.20
2017-09-02T19:37:07.920Z,74.80
2017-09-02T19:39:36.242Z,75.10
2017-09-02T19:42:04.566Z,75.50
2017-09-02T19:44:32.927Z,75.60
2017-09-02T19:47:01.259Z,75.60
2017-09-02T19:49:29.638Z,75.90
2017-09-02T19:51:58.079Z,76.50
2017-09-02T19:54:26.445Z,76.30
2017-09-02T19:56:54.949Z,75.50
2017-09-02T19:59:23.272Z,74.70
2017-09-02T20:01:52.160Z,74.30
2017-09-02T20:04:21.033Z,74.70
2017-09-02T20:06:49.333Z,73.50
2017-09-02T20:09:17.652Z,73.80
2017-09-02T20:11:45.987Z,73.60
2017-09-02T20:14:14.289Z,74.00
2017-09-02T20:16:42.632Z,74.20
2017-09-02T20:19:10.921Z,74.60
2017-09-02T20:21:39.245Z,74.80
2017-09-02T20:24:07.579Z,75.20
2017-09-02T20:26:37.690Z,75.00
2017-09-02T20:29:06.030Z,75.10
2017-09-02T20:31:34.381Z,76.20
2017-09-02T20:34:02.685Z,75.90
2017-09-02T20:36:30.995Z,75.30
2017-09-02T20:38:59.532Z,75.10
2017-09-02T20:41:27.996Z,75.00
2017-09-02T20:43:56.321Z,74.50
2017-09-02T20:46:24.611Z,74.00
2017-09-02T20:48:52.935Z,74.90
2017-09-02T20:51:25.298Z,75.60
2017-09-02T20:53:53.648Z,76.00
2017-09-02T20:56:22.853Z,76.40
2017-09-02T20:58:51.206Z,77.30
2017-09-02T21:01:20.674Z,76.90
2017-09-02T21:03:49.143Z,77.30
2017-09-02T21:06:17.455Z,77.90
2017-09-02T21:08:46.481Z,78.10
2017-09-02T21:11:15.416Z,78.10
2017-09-02T21:13:44.162Z,78.50
2017-09-02T21:16:14.224Z,78.70
2017-09-02T21:18:43.649Z,78.20
2017-09-02T21:21:11.980Z,78.00
2017-09-02T21:23:40.276Z,77.20
2017-09-02T21:26:08.593Z,77.10
2017-09-02T21:28:36.893Z,77.80
2017-09-02T21:31:05.229Z,77.80
2017-09-02T21:33:33.538Z,77.80
2017-09-02T21:36:01.864Z,78.30
2017-09-02T21:38:30.203Z,78.40
2017-09-02T21:40:58.540Z,78.80
2017-09-02T21:43:26.838Z,79.10
2017-09-02T21:45:55.286Z,79.80
2017-09-02T21:48:23.801Z,79.90
2017-09-02T21:50:52.189Z,80.10
2017-09-02T21:53:21.222Z,80.50
2017-09-02T21:55:49.831Z,80.10
2017-09-02T21:58:18.221Z,81.10
2017-09-02T22:00:46.553Z,80.60
2017-09-02T22:03:15.030Z,80.50
2017-09-02T22:05:43.462Z,80.40
2017-09-02T22:08:11.820Z,80.60
2017-09-02T22:10:40.147Z,81.50
2017-09-02T22:13:08.469Z,81.70
2017-09-02T22:15:37.533Z,81.60
2017-09-02T22:18:05.866Z,81.70
2017-09-02T22:20:34.259Z,81.90
2017-09-02T22:23:02.672Z,82.00
2017-09-02T22:25:31.255Z,81.90
2017-09-02T22:27:59.557Z,81.90
2017-09-02T22:30:27.936Z,82.30
2017-09-02T22:32:56.232Z,81.60
2017-09-02T22:35:24.565Z,81.80
2017-09-02T22:37:52.873Z,82.20
2017-09-02T22:40:21.171Z,82.60
2017-09-02T22:42:49.654Z,83.50
2017-09-02T22:45:18.116Z,82.80
2017-09-02T22:47:47.551Z,82.50
2017-09-02T22:50:15.850Z,82.50
2017-09-02T22:52:44.276Z,82.80
2017-09-02T22:55:12.654Z,83.90
2017-09-02T22:57:40.995Z,83.40
2017-09-02T23:00:09.582Z,83.40
2017-09-02T23:02:37.939Z,83.30
2017-09-02T23:05:06.527Z,82.80
2017-09-02T23:07:34.843Z,83.40
2017-09-02T23:10:03.167Z,82.80
2017-09-02T23:12:31.504Z,82.60
2017-09-02T23:15:00.575Z,82.00
2017-09-02T23:17:28.879Z,82.60
2017-09-02T23:19:58.022Z,83.20
2017-09-02T23:22:26.376Z,84.60
2017-09-02T23:24:54.704Z,84.60
2017-09-02T23:27:23.039Z,84.50
2017-09-02T23:29:51.374Z,85.10
2017-09-02T23:32:20.374Z,85.30
2017-09-02T23:34:48.733Z,85.20
2017-09-02T23:37:17.438Z,85.30
2017-09-02T23:39:45.803Z,85.90
2017-09-02T23:42:14.102Z,85.70
2017-09-02T23:44:42.490Z,85.90
2017-09-02T23:47:10.799Z,85.60
2017-09-02T23:49:39.501Z,85.80
2017-09-02T23:52:07.873Z,86.20
2017-09-02T23:54:36.741Z,86.30
2017-09-02T23:57:05.039Z,85.90
2017-09-02T23:59:33.367Z,85.10
